| time (UTC) | temp F | wind direction | speed MPH | gust MPH | rain 1hr in | rain 24hr in | rain mn in | humidity % | barometer mb |
| 20260506013921 | 66 | 239 | 7.0 | 8.0 | 0.00 | 0.02 | 0.02 | 30 | 1013.2 |
| 20260506013419 | 67 | 285 | 6.0 | 8.0 | 0.00 | 0.02 | 0.02 | 28 | 1013.2 |
| 20260506012915 | 67 | 71 | 2.0 | 2.0 | 0.00 | 0.02 | 0.02 | 27 | 1013.0 |
| 20260506012412 | 68 | 204 | 7.0 | 10.0 | 0.00 | 0.02 | 0.02 | 26 | 1013.1 |
| 20260506011909 | 68 | 54 | 6.0 | 8.0 | 0.00 | 0.02 | 0.02 | 26 | 1013.0 |
| 20260506011406 | 68 | 282 | 10.0 | 13.0 | 0.00 | 0.02 | 0.02 | 25 | 1013.0 |
| 20260506010903 | 68 | 202 | 6.0 | 7.0 | 0.00 | 0.02 | 0.02 | 25 | 1013.0 |
| 20260506010401 | 68 | 219 | 7.0 | 8.0 | 0.00 | 0.02 | 0.02 | 26 | 1012.7 |
| 20260506005858 | 69 | 206 | 6.0 | 8.0 | 0.00 | 0.02 | 0.02 | 26 | 1013.0 |
| 20260506005355 | 69 | 308 | 6.0 | 7.0 | 0.00 | 0.02 | 0.02 | 27 | 1012.7 |
| 20260506004850 | 69 | 225 | 9.0 | 11.0 | 0.00 | 0.02 | 0.02 | 27 | 1012.5 |
| 20260506004348 | 70 | 271 | 6.0 | 9.0 | 0.00 | 0.02 | 0.02 | 27 | 1012.6 |
| 20260506003844 | 70 | 334 | 7.0 | 8.0 | 0.00 | 0.02 | 0.02 | 27 | 1012.4 |
| 20260506003341 | 69 | 3 | 6.0 | 8.0 | 0.00 | 0.02 | 0.02 | 27 | 1012.4 |
| 20260506002837 | 69 | 276 | 7.0 | 11.0 | 0.00 | 0.02 | 0.02 | 28 | 1012.6 |
| 20260506002334 | 69 | 221 | 9.0 | 10.0 | 0.00 | 0.02 | 0.02 | 28 | 1012.4 |
| 20260506001829 | 70 | 309 | 9.0 | 14.0 | 0.00 | 0.02 | 0.02 | 28 | 1012.4 |
| 20260506001327 | 70 | 163 | 9.0 | 10.0 | 0.00 | 0.02 | 0.02 | 27 | 1012.5 |
| 20260506000823 | 71 | 142 | 12.0 | 17.0 | 0.00 | 0.02 | 0.02 | 26 | 1012.5 |
| 20260506000323 | 70 | 305 | 10.0 | 14.0 | 0.00 | 0.02 | 0.02 | 27 | 1012.4 |
| 20260505235818 | 70 | 245 | 9.0 | 11.0 | 0.00 | 0.02 | 0.02 | 28 | 1012.4 |
| 20260505235315 | 71 | 273 | 8.0 | 10.0 | 0.00 | 0.02 | 0.02 | 27 | 1012.4 |
| 20260505234812 | 70 | 242 | 9.0 | 11.0 | 0.00 | 0.02 | 0.02 | 26 | 1012.4 |
| 20260505234310 | 71 | 246 | 13.0 | 24.0 | 0.00 | 0.02 | 0.02 | 25 | 1012.4 |
| 20260505233807 | 71 | 264 | 11.0 | 15.0 | 0.00 | 0.02 | 0.02 | 26 | 1012.2 |
| 20260505233305 | 71 | 271 | 11.0 | 15.0 | 0.00 | 0.02 | 0.02 | 26 | 1012.3 |
| 20260505232801 | 71 | 254 | 6.0 | 8.0 | 0.00 | 0.02 | 0.02 | 27 | 1012.1 |
| 20260505232259 | 71 | 190 | 7.0 | 8.0 | 0.00 | 0.02 | 0.02 | 26 | 1012.3 |
| 20260505231755 | 72 | 237 | 11.0 | 15.0 | 0.00 | 0.02 | 0.02 | 25 | 1012.3 |
| 20260505231254 | 72 | 236 | 9.0 | 10.0 | 0.00 | 0.02 | 0.02 | 26 | 1012.2 |
| 20260505230752 | 73 | 139 | 6.0 | 7.0 | 0.00 | 0.02 | 0.02 | 25 | 1011.9 |
| 20260505230248 | 73 | 260 | 7.0 | 10.0 | 0.00 | 0.02 | 0.02 | 24 | 1012.2 |
| 20260505225745 | 73 | 246 | 10.0 | 19.0 | 0.00 | 0.02 | 0.02 | 23 | 1012.2 |
| 20260505225242 | 73 | 245 | 6.0 | 8.0 | 0.00 | 0.02 | 0.02 | 25 | 1012.2 |
| 20260505224737 | 72 | 238 | 9.0 | 14.0 | 0.00 | 0.02 | 0.02 | 25 | 1012.3 |
| 20260505224235 | 72 | 167 | 6.0 | 9.0 | 0.00 | 0.02 | 0.02 | 27 | 1012.3 |
| 20260505223732 | 72 | 197 | 10.0 | 17.0 | 0.00 | 0.02 | 0.02 | 26 | 1012.3 |
| 20260505223229 | 72 | 215 | 10.0 | 14.0 | 0.00 | 0.02 | 0.02 | 25 | 1012.2 |
| 20260505222725 | 72 | 276 | 7.0 | 10.0 | 0.00 | 0.02 | 0.02 | 26 | 1012.3 |
| 20260505222221 | 72 | 248 | 9.0 | 10.0 | 0.00 | 0.02 | 0.02 | 28 | 1012.3 |
| 20260505221718 | 71 | 81 | 7.0 | 11.0 | 0.00 | 0.02 | 0.02 | 27 | 1012.3 |
| 20260505221215 | 72 | 155 | 10.0 | 13.0 | 0.00 | 0.02 | 0.02 | 26 | 1012.5 |
| 20260505220712 | 71 | 246 | 4.0 | 7.0 | 0.00 | 0.02 | 0.02 | 26 | 1012.6 |
| 20260505220210 | 73 | 159 | 8.0 | 10.0 | 0.00 | 0.02 | 0.02 | 26 | 1012.6 |
| 20260505215707 | 72 | 257 | 8.0 | 10.0 | 0.00 | 0.02 | 0.02 | 26 | 1012.7 |
| 20260505215205 | 72 | 264 | 8.0 | 13.0 | 0.00 | 0.02 | 0.02 | 29 | 1012.6 |
| 20260505214702 | 71 | 261 | 7.0 | 8.0 | 0.00 | 0.02 | 0.02 | 28 | 1012.9 |
| 20260505214159 | 72 | 238 | 11.0 | 13.0 | 0.00 | 0.02 | 0.02 | 27 | 1013.0 |
| 20260505213657 | 71 | 251 | 8.0 | 9.0 | 0.00 | 0.02 | 0.02 | 26 | 1013.1 |
| 20260505213154 | 71 | 243 | 10.0 | 15.0 | 0.00 | 0.02 | 0.02 | 27 | 1013.1 |
| 20260505212649 | 72 | 260 | 11.0 | 14.0 | 0.00 | 0.02 | 0.02 | 29 | 1013.3 |
| 20260505212147 | 72 | 282 | 13.0 | 15.0 | 0.00 | 0.02 | 0.02 | 27 | 1013.3 |
| 20260505211644 | 72 | 255 | 9.0 | 14.0 | 0.00 | 0.02 | 0.02 | 28 | 1013.1 |
| 20260505211141 | 73 | 281 | 10.0 | 15.0 | 0.00 | 0.02 | 0.02 | 28 | 1013.4 |
| 20260505210638 | 71 | 281 | 9.0 | 11.0 | 0.00 | 0.02 | 0.02 | 29 | 1013.3 |
| 20260505210135 | 71 | 180 | 6.0 | 9.0 | 0.00 | 0.02 | 0.02 | 30 | 1013.3 |
| 20260505205632 | 72 | 168 | 11.0 | 15.0 | 0.00 | 0.02 | 0.02 | 29 | 1013.5 |
| 20260505205130 | 71 | 173 | 8.0 | 13.0 | 0.00 | 0.02 | 0.02 | 31 | 1013.5 |
| 20260505204627 | 71 | 167 | 5.0 | 7.0 | 0.00 | 0.02 | 0.02 | 31 | 1013.7 |
| 20260505204125 | 72 | 276 | 14.0 | 17.0 | 0.00 | 0.02 | 0.02 | 32 | 1013.5 |
| 20260505203621 | 72 | 241 | 5.0 | 8.0 | 0.00 | 0.02 | 0.02 | 31 | 1013.7 |
| 20260505203119 | 71 | 255 | 11.0 | 16.0 | 0.00 | 0.02 | 0.02 | 32 | 1013.7 |
| 20260505202614 | 71 | 334 | 11.0 | 14.0 | 0.00 | 0.02 | 0.02 | 31 | 1013.7 |
| 20260505202110 | 71 | 173 | 6.0 | 9.0 | 0.00 | 0.02 | 0.02 | 31 | 1013.5 |
| 20260505201607 | 71 | 263 | 12.0 | 16.0 | 0.00 | 0.02 | 0.02 | 32 | 1013.5 |
| 20260505201105 | 71 | 231 | 11.0 | 11.0 | 0.00 | 0.02 | 0.02 | 32 | 1013.5 |
| 20260505200602 | 70 | 212 | 9.0 | 11.0 | 0.00 | 0.02 | 0.02 | 33 | 1013.8 |
| 20260505200059 | 70 | 214 | 10.0 | 13.0 | 0.00 | 0.02 | 0.02 | 33 | 1013.8 |
| 20260505195555 | 71 | 265 | 12.0 | 15.0 | 0.00 | 0.02 | 0.02 | 32 | 1013.8 |
| 20260505195053 | 71 | 252 | 11.0 | 14.0 | 0.00 | 0.02 | 0.02 | 33 | 1013.8 |
| 20260505194550 | 71 | 286 | 11.0 | 14.0 | 0.00 | 0.02 | 0.02 | 32 | 1014.0 |
| 20260505194045 | 70 | 217 | 8.0 | 9.0 | 0.00 | 0.02 | 0.02 | 35 | 1014.0 |
| 20260505193543 | 70 | 245 | 13.0 | 17.0 | 0.00 | 0.02 | 0.02 | 34 | 1013.9 |
| 20260505193040 | 71 | 304 | 11.0 | 16.0 | 0.00 | 0.02 | 0.02 | 35 | 1014.2 |
| 20260505192538 | 71 | 222 | 8.0 | 11.0 | 0.00 | 0.02 | 0.02 | 34 | 1014.2 |
| 20260505192036 | 70 | 199 | 4.0 | 4.0 | 0.00 | 0.02 | 0.02 | 35 | 1014.2 |
| 20260505191534 | 69 | 171 | 9.0 | 10.0 | 0.00 | 0.02 | 0.02 | 36 | 1014.3 |
| 20260505191031 | 70 | 198 | 8.0 | 13.0 | 0.00 | 0.02 | 0.02 | 36 | 1014.3 |
| 20260505190525 | 71 | 237 | 10.0 | 13.0 | 0.00 | 0.02 | 0.02 | 34 | 1014.6 |
| 20260505190022 | 70 | 66 | 7.0 | 9.0 | 0.00 | 0.02 | 0.02 | 35 | 1014.7 |
| 20260505185519 | 70 | 261 | 9.0 | 10.0 | 0.00 | 0.02 | 0.02 | 35 | 1014.7 |
| 20260505185015 | 70 | 212 | 10.0 | 17.0 | 0.00 | 0.02 | 0.02 | 35 | 1014.9 |
| 20260505184513 | 71 | 273 | 11.0 | 14.0 | 0.00 | 0.02 | 0.02 | 33 | 1015.0 |
| 20260505184009 | 71 | 139 | 2.0 | 2.0 | 0.00 | 0.02 | 0.02 | 36 | 1014.8 |
| 20260505183506 | 70 | 334 | 6.0 | 7.0 | 0.00 | 0.02 | 0.02 | 37 | 1015.1 |
| 20260505183003 | 69 | 151 | 6.0 | 8.0 | 0.00 | 0.02 | 0.02 | 39 | 1014.9 |
| 20260505182500 | 69 | 145 | 5.0 | 7.0 | 0.00 | 0.02 | 0.02 | 39 | 1014.9 |
| 20260505181956 | 68 | 100 | 4.0 | 6.0 | 0.00 | 0.02 | 0.02 | 40 | 1014.9 |
| 20260505181453 | 68 | 212 | 4.0 | 7.0 | 0.00 | 0.02 | 0.02 | 40 | 1015.1 |
| 20260505180950 | 68 | 160 | 4.0 | 6.0 | 0.00 | 0.02 | 0.02 | 40 | 1015.1 |
| 20260505180446 | 68 | 83 | 4.0 | 6.0 | 0.00 | 0.02 | 0.02 | 40 | 1015.1 |
| 20260505175943 | 67 | 215 | 9.0 | 13.0 | 0.00 | 0.02 | 0.02 | 42 | 1015.1 |
| 20260505175439 | 65 | 81 | 1.0 | 3.0 | 0.00 | 0.02 | 0.02 | 46 | 1015.3 |
| 20260505174936 | 65 | 47 | 1.0 | 2.0 | 0.00 | 0.02 | 0.02 | 47 | 1015.1 |
| 20260505174433 | 64 | 357 | 3.0 | 4.0 | 0.00 | 0.02 | 0.02 | 46 | 1015.3 |
| 20260505173929 | 64 | 40 | 2.0 | 2.0 | 0.00 | 0.02 | 0.02 | 50 | 1015.7 |
| 20260505173426 | 64 | 61 | 1.0 | 1.0 | 0.00 | 0.02 | 0.02 | 50 | 1015.3 |
| 20260505172923 | 64 | 66 | 0.0 | 0.0 | 0.00 | 0.02 | 0.02 | 50 | 1015.3 |
| 20260505172421 | 63 | 79 | 3.0 | 4.0 | 0.00 | 0.02 | 0.02 | 52 | 1015.5 |
| 20260505171920 | 62 | 66 | 1.0 | 2.0 | 0.00 | 0.02 | 0.02 | 54 | 1015.1 |
| 20260505171418 | 61 | 62 | 1.0 | 1.0 | 0.00 | 0.02 | 0.02 | 55 | 1015.4 |
| 20260505170914 | 61 | 93 | 2.0 | 2.0 | 0.00 | 0.02 | 0.02 | 57 | 1015.5 |
| 20260505170411 | 60 | 88 | 3.0 | 4.0 | 0.00 | 0.02 | 0.02 | 58 | 1015.1 |
| 20260505165906 | 60 | 117 | 6.0 | 8.0 | 0.00 | 0.02 | 0.02 | 59 | 1015.6 |
| 20260505165402 | 60 | 123 | 5.0 | 6.0 | 0.00 | 0.02 | 0.02 | 59 | 1015.4 |
| 20260505164857 | 60 | 74 | 4.0 | 6.0 | 0.00 | 0.02 | 0.02 | 60 | 1015.5 |
| 20260505164355 | 60 | 91 | 5.0 | 7.0 | 0.00 | 0.02 | 0.02 | 61 | 1015.4 |
| 20260505163853 | 60 | 95 | 4.0 | 8.0 | 0.00 | 0.02 | 0.02 | 63 | 1015.5 |
| 20260505163351 | 60 | 83 | 4.0 | 7.0 | 0.00 | 0.02 | 0.02 | 63 | 1015.3 |
| 20260505162849 | 60 | 105 | 4.0 | 6.0 | 0.00 | 0.02 | 0.02 | 62 | 1015.5 |
| 20260505162345 | 60 | 115 | 3.0 | 4.0 | 0.00 | 0.02 | 0.02 | 61 | 1015.4 |
| 20260505161843 | 60 | 38 | 3.0 | 4.0 | 0.00 | 0.02 | 0.02 | 62 | 1015.3 |
| 20260505161339 | 60 | 45 | 1.0 | 2.0 | 0.00 | 0.02 | 0.02 | 61 | 1015.3 |
| 20260505160837 | 61 | 85 | 2.0 | 3.0 | 0.00 | 0.02 | 0.02 | 60 | 1015.3 |
| 20260505160335 | 60 | 37 | 2.0 | 4.0 | 0.00 | 0.02 | 0.02 | 61 | 1015.0 |
| 20260505153314 | 58 | 78 | 2.0 | 3.0 | 0.00 | 0.02 | 0.02 | 67 | 1015.1 |
| 20260505152811 | 58 | 122 | 5.0 | 7.0 | 0.00 | 0.02 | 0.02 | 67 | 1014.8 |
| 20260505152307 | 58 | 82 | 3.0 | 3.0 | 0.00 | 0.02 | 0.02 | 67 | 1014.8 |
| 20260505151802 | 58 | 76 | 3.0 | 3.0 | 0.00 | 0.02 | 0.02 | 67 | 1014.9 |
| 20260505151259 | 57 | 105 | 2.0 | 3.0 | 0.00 | 0.02 | 0.02 | 68 | 1014.8 |
| 20260505150756 | 57 | 70 | 1.0 | 1.0 | 0.00 | 0.02 | 0.02 | 69 | 1014.8 |
| 20260505150253 | 57 | 71 | 1.0 | 2.0 | 0.00 | 0.02 | 0.02 | 69 | 1014.7 |
| 20260505140223 | 55 | 67 | 1.0 | 2.0 | 0.00 | 0.02 | 0.02 | 71 | 1014.2 |
| 20260505130147 | 55 | 57 | 2.0 | 2.0 | 0.00 | 0.01 | 0.01 | 81 | 1014.0 |
| 20260505124636 | 54 | 61 | 0.0 | 0.0 | 0.07 | 0.01 | 0.01 | 83 | 1013.9 |
| 20260505124133 | 54 | 57 | 1.0 | 1.0 | 0.07 | 0.01 | 0.01 | 82 | 1013.7 |
| 20260505123629 | 55 | 61 | 1.0 | 2.0 | 0.07 | 0.01 | 0.01 | 81 | 1013.5 |
| 20260505123126 | 55 | 86 | 0.0 | 1.0 | 0.00 | 0.00 | 0.00 | 80 | 1013.3 |
| 20260505122622 | 55 | 80 | 2.0 | 2.0 | 0.00 | 0.00 | 0.00 | 77 | 1014.0 |
| 20260505122120 | 55 | 67 | 0.0 | 0.0 | 0.00 | 0.00 | 0.00 | 76 | 1013.9 |
| 20260505121616 | 55 | 68 | 1.0 | 2.0 | 0.00 | 0.00 | 0.00 | 75 | 1014.1 |
| 20260505121113 | 55 | 80 | 2.0 | 2.0 | 0.00 | 0.00 | 0.00 | 76 | 1014.0 |
| 20260505120609 | 55 | 119 | 2.0 | 4.0 | 0.00 | 0.00 | 0.00 | 75 | 1014.1 |
| 20260505120100 | 56 | 88 | 2.0 | 2.0 | 0.00 | 0.00 | 0.00 | 74 | 1014.0 |
| 20260505115600 | 56 | 81 | 1.0 | 2.0 | 0.00 | 0.00 | 0.00 | 74 | 1013.8 |
| 20260505115057 | 56 | 90 | 1.0 | 2.0 | 0.00 | 0.00 | 0.00 | 74 | 1013.8 |
| 20260505114549 | 56 | 65 | 1.0 | 1.0 | 0.00 | 0.00 | 0.00 | 73 | 1014.0 |
| 20260505114045 | 56 | 64 | 0.0 | 1.0 | 0.00 | 0.00 | 0.00 | 71 | 1013.9 |
| 20260505113541 | 56 | 85 | 0.0 | 0.0 | 0.00 | 0.00 | 0.00 | 68 | 1014.3 |
| 20260505113037 | 56 | 69 | 0.0 | 0.0 | 0.00 | 0.00 | 0.00 | 66 | 1014.6 |
| 20260505112535 | 56 | 60 | 0.0 | 1.0 | 0.00 | 0.00 | 0.00 | 66 | 1014.2 |
| 20260505112033 | 56 | 77 | 1.0 | 1.0 | 0.00 | 0.00 | 0.00 | 64 | 1014.7 |
| 20260505111531 | 57 | 69 | 0.0 | 1.0 | 0.00 | 0.00 | 0.00 | 62 | 1014.8 |
| 20260505111028 | 57 | 31 | 2.0 | 3.0 | 0.00 | 0.00 | 0.00 | 59 | 1014.9 |
| 20260505110525 | 57 | 63 | 1.0 | 1.0 | 0.00 | 0.00 | 0.00 | 57 | 1014.5 |
| 20260505101958 | 58 | 53 | 2.0 | 2.0 | 0.00 | 0.00 | 0.00 | 51 | 1015.3 |
| 20260505101455 | 58 | 7 | 3.0 | 3.0 | 0.00 | 0.00 | 0.00 | 63 | 1015.3 |
| 20260505100951 | 58 | 61 | 0.0 | 0.0 | 0.00 | 0.00 | 0.00 | 59 | 1015.5 |
| 20260505100450 | 58 | 333 | 4.0 | 4.0 | 0.00 | 0.00 | 0.00 | 65 | 1015.5 |
| 20260505095945 | 58 | 6 | 5.0 | 7.0 | 0.00 | 0.00 | 0.00 | 64 | 1015.7 |
| 20260505095442 | 58 | 18 | 4.0 | 4.0 | 0.00 | 0.00 | 0.00 | 64 | 1015.9 |
| 20260505094938 | 58 | 31 | 3.0 | 3.0 | 0.00 | 0.00 | 0.00 | 64 | 1015.8 |
| 20260505094435 | 59 | 13 | 4.0 | 6.0 | 0.00 | 0.00 | 0.00 | 62 | 1015.5 |
| 20260505093931 | 59 | 24 | 4.0 | 4.0 | 0.00 | 0.00 | 0.00 | 57 | 1015.7 |
| 20260505093428 | 60 | 358 | 4.0 | 6.0 | 0.00 | 0.00 | 0.00 | 55 | 1015.7 |
| 20260505092925 | 60 | 38 | 2.0 | 2.0 | 0.00 | 0.00 | 0.00 | 52 | 1016.0 |
| 20260505092423 | 60 | 31 | 2.0 | 2.0 | 0.00 | 0.00 | 0.00 | 50 | 1016.0 |
| 20260505091920 | 60 | 62 | 4.0 | 6.0 | 0.00 | 0.00 | 0.00 | 49 | 1015.9 |
| 20260505091418 | 60 | 18 | 2.0 | 3.0 | 0.00 | 0.00 | 0.00 | 47 | 1015.9 |
| 20260505090916 | 60 | 33 | 3.0 | 3.0 | 0.00 | 0.00 | 0.00 | 48 | 1015.9 |
| 20260505090414 | 60 | 325 | 5.0 | 8.0 | 0.00 | 0.00 | 0.00 | 48 | 1016.4 |
| 20260505085911 | 60 | 3 | 3.0 | 4.0 | 0.00 | 0.00 | 0.00 | 47 | 1016.4 |
| 20260505085409 | 60 | 353 | 5.0 | 8.0 | 0.00 | 0.00 | 0.00 | 46 | 1016.3 |
| 20260505084907 | 60 | 312 | 7.0 | 8.0 | 0.00 | 0.00 | 0.00 | 46 | 1016.2 |
| 20260505084405 | 61 | 330 | 5.0 | 6.0 | 0.00 | 0.00 | 0.00 | 46 | 1016.3 |
| 20260505083902 | 61 | 24 | 5.0 | 7.0 | 0.00 | 0.00 | 0.00 | 45 | 1016.3 |
| 20260505083359 | 61 | 24 | 3.0 | 4.0 | 0.00 | 0.00 | 0.00 | 45 | 1016.7 |
| 20260505082856 | 61 | 43 | 4.0 | 7.0 | 0.00 | 0.00 | 0.00 | 43 | 1016.7 |
| 20260505082351 | 61 | 357 | 4.0 | 7.0 | 0.00 | 0.00 | 0.00 | 42 | 1016.8 |
| 20260505081848 | 61 | 58 | 2.0 | 4.0 | 0.00 | 0.00 | 0.00 | 41 | 1016.7 |
| 20260505081345 | 61 | 57 | 3.0 | 4.0 | 0.00 | 0.00 | 0.00 | 40 | 1016.6 |
| 20260505080841 | 61 | 6 | 3.0 | 7.0 | 0.00 | 0.00 | 0.00 | 39 | 1016.5 |
| 20260505080338 | 62 | 55 | 3.0 | 3.0 | 0.00 | 0.00 | 0.00 | 37 | 1016.4 |
| 20260505075833 | 62 | 10 | 4.0 | 6.0 | 0.00 | 0.00 | 0.00 | 37 | 1016.5 |
| 20260505075330 | 62 | 47 | 5.0 | 6.0 | 0.00 | 0.00 | 0.00 | 36 | 1016.6 |
| 20260505074827 | 62 | 66 | 2.0 | 3.0 | 0.00 | 0.00 | 0.00 | 36 | 1016.7 |
| 20260505074324 | 62 | 312 | 3.0 | 3.0 | 0.00 | 0.00 | 0.00 | 35 | 1017.2 |
| 20260505073822 | 62 | 347 | 3.0 | 4.0 | 0.00 | 0.00 | 0.00 | 34 | 1017.1 |
| 20260505073320 | 62 | 321 | 4.0 | 6.0 | 0.00 | 0.00 | 0.00 | 33 | 1017.2 |
| 20260505072817 | 62 | 13 | 4.0 | 6.0 | 0.00 | 0.00 | 0.00 | 33 | 1016.7 |
| 20260505072313 | 62 | 66 | 0.0 | 0.0 | 0.00 | 0.00 | 0.00 | 34 | 1016.7 |
| 20260505071809 | 62 | 59 | 0.0 | 1.0 | 0.00 | 0.00 | 0.00 | 34 | 1016.7 |
| 20260505071306 | 63 | 62 | 0.0 | 0.0 | 0.00 | 0.00 | 0.00 | 34 | 1017.2 |
| 20260505070804 | 63 | 23 | 3.0 | 3.0 | 0.00 | 0.00 | 0.00 | 33 | 1017.0 |
| 20260505070300 | 63 | 51 | 2.0 | 3.0 | 0.00 | 0.00 | 0.00 | 33 | 1016.8 |
| 20260505065755 | 63 | 62 | 0.0 | 1.0 | 0.00 | 0.00 | 0.00 | 32 | 1017.2 |
| 20260505065252 | 62 | 64 | 0.0 | 0.0 | 0.00 | 0.00 | 0.00 | 33 | 1017.2 |
| 20260505064749 | 62 | 68 | 0.0 | 0.0 | 0.00 | 0.00 | 0.00 | 32 | 1016.7 |
| 20260505064246 | 62 | 63 | 0.0 | 0.0 | 0.00 | 0.00 | 0.00 | 32 | 1016.8 |
| 20260505063744 | 62 | 64 | 0.0 | 0.0 | 0.00 | 0.00 | 0.00 | 32 | 1017.0 |
| 20260505063240 | 63 | 65 | 0.0 | 0.0 | 0.00 | 0.00 | 0.00 | 32 | 1016.6 |
| 20260505062737 | 63 | 64 | 0.0 | 0.0 | 0.00 | 0.00 | 0.00 | 32 | 1016.8 |
| 20260505062234 | 63 | 64 | 0.0 | 0.0 | 0.00 | 0.00 | 0.00 | 32 | 1017.1 |
| 20260505061731 | 63 | 63 | 0.0 | 0.0 | 0.00 | 0.00 | 0.00 | 32 | 1017.0 |
| 20260505061229 | 63 | 61 | 0.0 | 0.0 | 0.00 | 0.00 | 0.00 | 32 | 1017.2 |
| 20260505060726 | 63 | 63 | 0.0 | 0.0 | 0.00 | 0.00 | 0.00 | 31 | 1017.1 |
| 20260505060223 | 64 | 103 | 1.0 | 2.0 | 0.00 | 0.00 | 0.00 | 31 | 1017.3 |
| 20260505055718 | 63 | 16 | 2.0 | 2.0 | 0.00 | 0.00 | 0.00 | 31 | 1017.3 |
| 20260505055215 | 63 | 58 | 1.0 | 1.0 | 0.00 | 0.00 | 0.00 | 31 | 1017.1 |
| 20260505054712 | 63 | 71 | 1.0 | 1.0 | 0.00 | 0.00 | 0.00 | 31 | 1017.0 |
| 20260505054210 | 63 | 57 | 2.0 | 3.0 | 0.00 | 0.00 | 0.00 | 31 | 1017.1 |
| 20260505053708 | 63 | 57 | 0.0 | 0.0 | 0.00 | 0.00 | 0.00 | 31 | 1017.0 |
| 20260505053204 | 63 | 34 | 2.0 | 2.0 | 0.00 | 0.00 | 0.00 | 31 | 1017.2 |
| 20260505052702 | 63 | 353 | 4.0 | 6.0 | 0.00 | 0.00 | 0.00 | 31 | 1017.3 |
| 20260505052158 | 63 | 42 | 4.0 | 6.0 | 0.00 | 0.00 | 0.00 | 32 | 1017.2 |
| 20260505051655 | 63 | 358 | 7.0 | 8.0 | 0.00 | 0.00 | 0.00 | 33 | 1017.4 |
| 20260505051153 | 62 | 14 | 6.0 | 7.0 | 0.00 | 0.00 | 0.00 | 33 | 1017.4 |
| 20260505050651 | 62 | 345 | 5.0 | 7.0 | 0.00 | 0.00 | 0.00 | 34 | 1017.3 |
| 20260505050150 | 62 | 36 | 3.0 | 3.0 | 0.00 | 0.00 | 0.00 | 34 | 1017.6 |
| 20260505041624 | 62 | 344 | 7.0 | 8.0 | 0.00 | 0.00 | 0.00 | 36 | 1016.7 |
| 20260505041122 | 62 | 343 | 4.0 | 6.0 | 0.00 | 0.00 | 0.00 | 37 | 1016.7 |
| 20260505040618 | 62 | 342 | 6.0 | 8.0 | 0.00 | 0.00 | 0.00 | 38 | 1016.5 |
| 20260505040116 | 62 | 7 | 5.0 | 7.0 | 0.00 | 0.00 | 0.00 | 38 | 1016.3 |
| 20260505035612 | 63 | 7 | 3.0 | 7.0 | 0.00 | 0.00 | 0.00 | 37 | 1016.6 |
| 20260505035108 | 63 | 280 | 9.0 | 10.0 | 0.00 | 0.00 | 0.00 | 37 | 1017.0 |
| 20260505034605 | 63 | 26 | 6.0 | 8.0 | 0.00 | 0.00 | 0.00 | 37 | 1017.2 |
| 20260505034102 | 63 | 298 | 8.0 | 11.0 | 0.00 | 0.00 | 0.00 | 37 | 1017.1 |
| 20260505033559 | 63 | 307 | 6.0 | 8.0 | 0.00 | 0.00 | 0.00 | 37 | 1017.4 |
| 20260505033057 | 63 | 331 | 5.0 | 6.0 | 0.00 | 0.00 | 0.00 | 37 | 1017.2 |
| 20260505032555 | 64 | 318 | 6.0 | 9.0 | 0.00 | 0.00 | 0.00 | 36 | 1016.8 |
| 20260505032051 | 64 | 44 | 6.0 | 8.0 | 0.00 | 0.00 | 0.00 | 36 | 1016.5 |
| 20260505031548 | 64 | 305 | 9.0 | 13.0 | 0.00 | 0.00 | 0.00 | 36 | 1016.5 |
| 20260505031044 | 64 | 331 | 9.0 | 10.0 | 0.00 | 0.00 | 0.00 | 36 | 1016.6 |
| 20260505030542 | 64 | 349 | 4.0 | 6.0 | 0.00 | 0.00 | 0.00 | 35 | 1016.4 |
| 20260505030037 | 64 | 280 | 6.0 | 7.0 | 0.00 | 0.00 | 0.00 | 35 | 1016.4 |
| 20260505025533 | 64 | 330 | 5.0 | 6.0 | 0.00 | 0.00 | 0.00 | 35 | 1016.4 |
| 20260505025033 | 65 | 329 | 9.0 | 13.0 | 0.00 | 0.00 | 0.00 | 35 | 1016.5 |
| 20260505024529 | 65 | 305 | 6.0 | 8.0 | 0.00 | 0.00 | 0.00 | 35 | 1016.0 |
| 20260505024026 | 65 | 349 | 6.0 | 11.0 | 0.00 | 0.00 | 0.00 | 34 | 1015.9 |
| 20260505023523 | 65 | 272 | 7.0 | 8.0 | 0.00 | 0.00 | 0.00 | 34 | 1015.7 |
| 20260505023021 | 65 | 322 | 4.0 | 7.0 | 0.00 | 0.00 | 0.00 | 33 | 1015.8 |
| 20260505022518 | 66 | 294 | 7.0 | 10.0 | 0.00 | 0.00 | 0.00 | 33 | 1015.8 |
| 20260505022015 | 66 | 295 | 6.0 | 7.0 | 0.00 | 0.00 | 0.00 | 32 | 1015.6 |
| 20260505021512 | 66 | 349 | 8.0 | 10.0 | 0.00 | 0.00 | 0.00 | 32 | 1015.5 |
| 20260505021008 | 67 | 351 | 10.0 | 13.0 | 0.00 | 0.00 | 0.00 | 31 | 1015.7 |
| 20260505020503 | 68 | 348 | 10.0 | 11.0 | 0.00 | 0.00 | 0.00 | 29 | 1015.1 |
| 20260505015959 | 71 | 355 | 5.0 | 7.0 | 0.00 | 0.00 | 0.00 | 26 | 1014.9 |
| 20260505015457 | 72 | 323 | 7.0 | 8.0 | 0.00 | 0.00 | 0.00 | 21 | 1015.3 |
| 20260505014954 | 72 | 5 | 4.0 | 4.0 | 0.00 | 0.00 | 0.00 | 22 | 1015.0 |
| 20260505014451 | 73 | 37 | 2.0 | 3.0 | 0.00 | 0.00 | 0.00 | 23 | 1015.3 |